Time;durP1;ratioP1;P1;durP2;ratioP2;P2;SDS_P1;SDS_P2;PMS_P1;PMS_P2;Temp;Humidity;BMP_temperature;BMP_pressure;BME280_temperature;BME280_humidity;BME280_pressure;Samples;Min_cycle;Max_cycle;Signal;HPM_P1;HPM_P2
2021/09/08 00:00:19;;;;;;;0.47;0.47;;;;;;;12.27;74.41;100470.56;5089751;28;20052;-73
2021/09/08 00:02:45;;;;;;;0.65;0.65;;;;;;;12.31;74.22;100467.69;5071898;28;20082;-74
2021/09/08 00:05:11;;;;;;;0.95;0.95;;;;;;;12.32;74.27;100474.63;5089714;28;20048;-74
2021/09/08 00:07:37;;;;;;;1.38;1.35;;;;;;;12.27;74.09;100466.16;5071794;28;20516;-73
2021/09/08 00:10:04;;;;;;;0.73;0.73;;;;;;;12.27;74.17;100460.91;5071758;28;20090;-73
2021/09/08 00:12:31;;;;;;;0.85;0.85;;;;;;;12.21;74.33;100468.25;5088448;28;20097;-72
2021/09/08 00:14:57;;;;;;;0.85;0.85;;;;;;;12.25;73.91;100468.03;5089873;28;20048;-74
2021/09/08 00:17:23;;;;;;;0.82;0.82;;;;;;;12.25;74.03;100472.41;5088521;28;20048;-73
2021/09/08 00:19:49;;;;;;;0.90;0.90;;;;;;;12.22;74.14;100464.72;5090573;28;20051;-72
2021/09/08 00:22:15;;;;;;;1.50;1.40;;;;;;;12.19;74.52;100472.72;5091885;28;20070;-74
2021/09/08 00:24:40;;;;;;;1.55;1.45;;;;;;;12.18;74.33;100466.63;5088522;28;20079;-74
2021/09/08 00:27:13;;;;;;;1.05;1.05;;;;;;;12.19;73.88;100459.63;5089716;28;20114;-75
2021/09/08 00:29:39;;;;;;;0.90;0.90;;;;;;;12.17;73.81;100464.13;5072053;28;20052;-73
2021/09/08 00:32:05;;;;;;;1.23;1.05;;;;;;;12.18;74.34;100461.41;5071639;28;20078;-74
2021/09/08 00:34:33;;;;;;;0.80;0.80;;;;;;;12.15;74.55;100460.72;5087922;28;20048;-74
2021/09/08 00:37:20;;;;;;;1.10;1.10;;;;;;;12.12;74.21;100464.34;5074581;28;20048;-73
2021/09/08 00:40:08;;;;;;;0.60;0.60;;;;;;;12.12;74.19;100461.72;5092065;28;20055;-73
2021/09/08 00:42:54;;;;;;;0.90;0.90;;;;;;;12.17;74.23;100464.94;5092121;28;20056;-72
2021/09/08 00:45:41;;;;;;;0.93;0.93;;;;;;;12.09;74.67;100450.56;5090472;28;20044;-72
2021/09/08 00:48:29;;;;;;;0.52;0.52;;;;;;;12.12;74.21;100461.72;5089319;28;20090;-73
2021/09/08 00:51:15;;;;;;;0.57;0.57;;;;;;;12.09;74.18;100467.13;5074177;28;20044;-73
2021/09/08 00:54:03;;;;;;;1.42;1.33;;;;;;;12.08;74.71;100462.81;5074517;28;20055;-72
2021/09/08 00:56:52;;;;;;;0.70;0.68;;;;;;;12.10;74.34;100452.25;5089124;28;20076;-73
2021/09/08 00:59:40;;;;;;;0.70;0.70;;;;;;;12.10;74.13;100463.59;5087955;28;20588;-73
2021/09/08 01:02:26;;;;;;;6.90;1.00;;;;;;;12.08;74.28;100454.94;5089046;28;20063;-73
2021/09/08 01:05:14;;;;;;;0.70;0.70;;;;;;;12.02;74.27;100450.03;5089012;28;20052;-75
2021/09/08 01:08:02;;;;;;;1.58;1.48;;;;;;;11.98;74.49;100446.72;5093436;28;20083;-74
2021/09/08 01:10:48;;;;;;;1.65;1.05;;;;;;;11.98;74.78;100451.09;5077972;28;20109;-74
2021/09/08 01:13:35;;;;;;;0.98;0.98;;;;;;;11.94;74.56;100444.34;5077822;28;20513;-73
2021/09/08 01:16:20;;;;;;;0.65;0.65;;;;;;;11.96;74.54;100445.13;5092892;28;20052;-74
2021/09/08 01:19:06;;;;;;;0.98;0.98;;;;;;;11.95;74.56;100453.88;5093096;28;20127;-74
2021/09/08 01:21:52;;;;;;;0.90;0.90;;;;;;;11.93;74.67;100460.97;5077793;28;20462;-73
2021/09/08 01:24:41;;;;;;;1.73;1.63;;;;;;;11.91;74.75;100444.50;5077806;28;20528;-73
2021/09/08 01:27:27;;;;;;;6.55;1.13;;;;;;;11.89;74.75;100459.44;5092703;28;20052;-73
2021/09/08 01:30:20;;;;;;;1.33;1.27;;;;;;;11.83;75.05;100455.38;5092958;28;20151;-74
2021/09/08 01:33:12;;;;;;;0.70;0.70;;;;;;;11.80;75.10;100459.91;5091969;28;20524;-72
2021/09/08 01:35:58;;;;;;;0.70;0.70;;;;;;;11.77;75.34;100457.44;5091648;28;20125;-72
2021/09/08 01:38:44;;;;;;;1.02;1.02;;;;;;;11.78;75.42;100461.75;5077593;28;20257;-72
2021/09/08 01:41:30;;;;;;;1.10;1.10;;;;;;;11.79;74.90;100459.03;5091955;28;20048;-73
2021/09/08 01:44:17;;;;;;;0.77;0.77;;;;;;;11.72;75.18;100457.66;5077109;28;20040;-74
2021/09/08 01:47:03;;;;;;;0.57;0.57;;;;;;;11.71;75.60;100460.38;5091506;28;20058;-73
2021/09/08 01:49:49;;;;;;;5.63;1.45;;;;;;;11.66;75.23;100457.94;5092289;28;20385;-73
2021/09/08 01:52:35;;;;;;;4.65;1.17;;;;;;;11.66;75.64;100463.16;5091990;28;20440;-72
2021/09/08 01:55:21;;;;;;;0.65;0.65;;;;;;;11.60;75.33;100453.00;5092238;28;20067;-73
2021/09/08 01:58:07;;;;;;;0.65;0.65;;;;;;;11.59;75.86;100461.75;5092263;28;20064;-73
2021/09/08 02:00:53;;;;;;;1.60;1.10;;;;;;;11.52;75.91;100452.53;5092148;28;20175;-75
2021/09/08 02:03:38;;;;;;;0.90;0.90;;;;;;;11.54;76.06;100449.84;5092064;28;20118;-75
2021/09/08 02:06:27;;;;;;;1.08;1.08;;;;;;;11.58;75.92;100462.72;5091871;28;20433;-73
2021/09/08 02:09:13;;;;;;;1.17;1.17;;;;;;;11.52;76.39;100456.00;5091236;28;20043;-73
2021/09/08 02:11:59;;;;;;;1.05;1.05;;;;;;;11.46;76.07;100440.59;5091927;28;20087;-75
2021/09/08 02:14:45;;;;;;;0.90;0.90;;;;;;;11.47;76.57;100446.69;5092000;28;20056;-73
2021/09/08 02:17:31;;;;;;;0.90;0.90;;;;;;;11.45;76.10;100457.22;5091444;28;20120;-72
2021/09/08 02:20:17;;;;;;;0.75;0.75;;;;;;;11.43;76.66;100446.00;5091733;28;20051;-74
2021/09/08 02:23:03;;;;;;;0.98;0.98;;;;;;;11.46;76.15;100448.44;5090880;28;20113;-74
2021/09/08 02:25:48;;;;;;;0.93;0.93;;;;;;;11.45;76.28;100448.53;5091652;28;20043;-72
2021/09/08 02:28:35;;;;;;;0.85;0.85;;;;;;;11.39;76.24;100441.81;5091728;28;20139;-73
2021/09/08 02:31:21;;;;;;;0.80;0.80;;;;;;;11.43;75.91;100440.75;5090534;28;20516;-74
2021/09/08 02:34:07;;;;;;;1.80;1.70;;;;;;;11.46;75.97;100444.97;5076588;28;20478;-74
2021/09/08 02:36:53;;;;;;;1.75;0.95;;;;;;;11.39;76.52;100447.06;5080501;28;20417;-73
2021/09/08 02:39:39;;;;;;;0.82;0.82;;;;;;;11.36;76.32;100444.59;5089020;28;20048;-75
2021/09/08 02:42:25;;;;;;;1.02;1.02;;;;;;;11.38;76.50;100445.38;5075861;28;20452;-75
2021/09/08 02:45:11;;;;;;;6.78;0.88;;;;;;;11.34;76.42;100435.97;5090261;28;20048;-74
2021/09/08 02:47:56;;;;;;;3.60;1.10;;;;;;;11.32;76.76;100442.22;5076329;28;20109;-77
2021/09/08 02:50:42;;;;;;;0.68;0.68;;;;;;;11.33;76.24;100439.50;5090986;28;20052;-75
2021/09/08 02:53:28;;;;;;;1.17;1.17;;;;;;;11.29;77.00;100429.25;5091041;28;20129;-76
2021/09/08 02:56:14;;;;;;;1.30;1.30;;;;;;;11.29;77.14;100431.88;5062141;28;20117;-74
2021/09/08 02:59:00;;;;;;;1.20;0.98;;;;;;;11.28;76.58;100435.44;5091185;28;20502;-74
2021/09/08 03:01:46;;;;;;;1.00;1.00;;;;;;;11.26;76.80;100440.72;5091012;28;20516;-74
2021/09/08 03:04:32;;;;;;;1.00;1.00;;;;;;;11.25;76.97;100433.81;5091299;28;20135;-73
2021/09/08 03:07:17;;;;;;;0.80;0.80;;;;;;;11.22;77.11;100422.66;5078384;28;20047;-73
2021/09/08 03:10:04;;;;;;;0.70;0.70;;;;;;;11.26;76.56;100427.66;5090139;28;20421;-73
2021/09/08 03:12:50;;;;;;;0.65;0.65;;;;;;;11.29;76.55;100427.50;5075517;28;20058;-73
2021/09/08 03:15:37;;;;;;;1.05;1.05;;;;;;;11.24;76.59;100420.81;5090778;28;20054;-77
2021/09/08 03:18:23;;;;;;;1.13;1.13;;;;;;;11.25;76.05;100412.91;5061956;28;20048;-74
2021/09/08 03:21:09;;;;;;;20.75;1.00;;;;;;;11.29;76.21;100418.81;5090481;28;20052;-75
2021/09/08 03:23:56;;;;;;;1.45;0.70;;;;;;;11.27;76.54;100418.91;5089630;28;20044;-75
2021/09/08 03:26:41;;;;;;;1.27;1.25;;;;;;;11.36;76.08;100428.06;5090354;28;20050;-76
2021/09/08 03:29:28;;;;;;;0.95;0.95;;;;;;;11.35;76.15;100426.38;5089953;28;20039;-78
2021/09/08 03:32:13;;;;;;;1.35;1.35;;;;;;;11.36;76.33;100428.91;5074760;28;20116;-77
2021/09/08 03:34:59;;;;;;;1.35;1.35;;;;;;;11.32;75.87;100419.50;5080567;28;20043;-75
2021/09/08 03:37:45;;;;;;;2.45;2.25;;;;;;;11.37;76.32;100420.16;5068584;28;20063;-75
2021/09/08 03:40:32;;;;;;;1.75;1.65;;;;;;;11.38;75.94;100427.09;5069797;28;20079;-75
2021/09/08 03:43:18;;;;;;;1.88;1.77;;;;;;;11.41;76.02;100424.31;5069905;28;20059;-76
2021/09/08 03:46:06;;;;;;;1.17;1.17;;;;;;;11.36;75.99;100412.38;5070167;28;20657;-75
2021/09/08 03:48:52;;;;;;;3.08;2.88;;;;;;;11.39;76.46;100426.13;5070135;28;20052;-75
2021/09/08 03:51:38;;;;;;;8.05;2.05;;;;;;;11.38;76.31;100424.47;5080667;28;20055;-75
2021/09/08 03:54:24;;;;;;;1.75;1.65;;;;;;;11.43;75.96;100427.69;5102086;28;20047;-77
2021/09/08 03:57:10;;;;;;;1.10;1.10;;;;;;;11.54;75.91;100421.09;5096513;28;20048;-77
2021/09/08 03:59:56;;;;;;;0.82;0.82;;;;;;;11.54;75.27;100419.31;5088176;28;20134;-77
2021/09/08 04:02:42;;;;;;;2.80;2.30;;;;;;;11.55;75.53;100422.78;5090068;28;20056;-76
2021/09/08 04:05:29;;;;;;;4.03;2.35;;;;;;;11.53;75.80;100430.69;5088891;28;20048;-76
2021/09/08 04:08:15;;;;;;;1.33;1.33;;;;;;;11.57;76.21;100431.38;5075139;28;20048;-74
2021/09/08 04:11:01;;;;;;;1.85;1.63;;;;;;;11.50;75.42;100426.47;5089450;28;20059;-70
2021/09/08 04:13:47;;;;;;;4.68;1.48;;;;;;;11.56;76.19;100437.53;5088523;28;20133;-70
2021/09/08 04:16:33;;;;;;;0.93;0.93;;;;;;;11.58;75.25;100423.47;5089332;28;20135;-70
2021/09/08 04:19:20;;;;;;;1.55;1.55;;;;;;;11.56;75.05;100430.53;5088504;28;20040;-69
2021/09/08 04:22:06;;;;;;;1.45;1.38;;;;;;;11.50;75.41;100421.25;5089064;28;20040;-70
2021/09/08 04:24:52;;;;;;;1.50;1.40;;;;;;;11.57;74.93;100428.78;5089014;28;20401;-69
2021/09/08 04:27:38;;;;;;;1.65;1.65;;;;;;;11.58;75.56;100430.47;5073912;28;20056;-70
2021/09/08 04:30:24;;;;;;;1.90;1.80;;;;;;;11.60;75.12;100433.84;5088053;28;20113;-70
2021/09/08 04:33:10;;;;;;;20.58;2.08;;;;;;;11.72;75.23;100428.03;5072703;28;20108;-69
2021/09/08 04:35:57;;;;;;;2.28;2.00;;;;;;;11.73;74.74;100432.34;5088472;28;20120;-71
2021/09/08 04:38:45;;;;;;;1.98;1.88;;;;;;;11.77;74.73;100429.50;5088892;28;20083;-70
2021/09/08 04:41:31;;;;;;;1.42;1.42;;;;;;;11.81;74.35;100432.81;5090390;28;20051;-69
2021/09/08 04:44:17;;;;;;;1.20;1.20;;;;;;;11.71;74.80;100435.06;5093473;28;20052;-70
2021/09/08 04:47:02;;;;;;;1.02;1.02;;;;;;;11.82;74.37;100421.41;5093186;28;20040;-70
2021/09/08 04:49:48;;;;;;;1.48;1.38;;;;;;;11.96;74.39;100429.41;5093427;28;20051;-71
2021/09/08 04:52:35;;;;;;;1.80;1.70;;;;;;;11.90;73.48;100422.72;5091919;28;20168;-70
2021/09/08 04:55:21;;;;;;;5.43;2.00;;;;;;;12.02;73.14;100429.09;5093205;28;20048;-70
2021/09/08 04:58:07;;;;;;;2.53;1.85;;;;;;;11.94;73.97;100426.03;5078137;28;20058;-71
2021/09/08 05:00:53;;;;;;;2.28;2.08;;;;;;;11.98;72.88;100422.31;5093161;28;20495;-71
2021/09/08 05:03:39;;;;;;;1.52;1.45;;;;;;;12.11;72.86;100423.38;5093096;28;20501;-69
2021/09/08 05:06:26;;;;;;;1.48;1.48;;;;;;;12.05;72.74;100415.84;5092976;28;20685;-69
2021/09/08 05:09:21;;;;;;;1.17;1.17;;;;;;;12.03;73.34;100417.72;5077873;28;20577;-73
2021/09/08 05:12:09;;;;;;;1.27;1.27;;;;;;;12.19;72.58;100421.22;5092916;28;20074;-72
2021/09/08 05:15:01;;;;;;;1.98;1.88;;;;;;;12.20;72.38;100422.06;5093061;28;20090;-72
2021/09/08 05:17:53;;;;;;;3.22;2.15;;;;;;;12.25;72.04;100414.81;5092835;28;20047;-70
2021/09/08 05:20:19;;;;;;;1.42;1.40;;;;;;;12.36;71.42;100413.34;5092964;28;20055;-70
2021/09/08 05:22:45;;;;;;;1.23;1.17;;;;;;;12.43;72.23;100413.84;5092621;28;20055;-70
2021/09/08 05:25:11;;;;;;;1.20;1.20;;;;;;;12.35;71.56;100401.16;5057947;28;20044;-69
2021/09/08 05:27:37;;;;;;;1.45;1.40;;;;;;;12.52;71.46;100403.72;5090816;28;20532;-70
2021/09/08 05:30:04;;;;;;;1.80;1.77;;;;;;;12.35;70.96;100401.16;5092059;28;20047;-76
2021/09/08 05:32:30;;;;;;;1.17;1.17;;;;;;;12.54;70.24;100412.34;5091969;28;20495;-78
2021/09/08 05:34:56;;;;;;;1.35;1.30;;;;;;;12.73;70.13;100403.50;5092648;28;20064;-76
2021/09/08 05:37:25;;;;;;;1.27;1.27;;;;;;;12.67;70.19;100399.41;5092706;28;20056;-77
2021/09/08 05:39:52;;;;;;;1.38;1.38;;;;;;;12.77;69.96;100397.97;5091376;28;20044;-77
2021/09/08 05:42:18;;;;;;;1.52;1.45;;;;;;;12.97;68.67;100405.59;5048259;28;20049;-77
2021/09/08 05:44:44;;;;;;;1.55;1.45;;;;;;;13.03;68.53;100397.38;5055740;28;20571;-77
2021/09/08 05:47:10;;;;;;;1.15;1.15;;;;;;;13.23;67.82;100401.53;5084702;28;20044;-77
2021/09/08 05:49:36;;;;;;;0.98;0.98;;;;;;;13.55;67.18;100400.50;5070135;28;20048;-76
2021/09/08 05:52:03;;;;;;;1.00;1.00;;;;;;;13.53;66.56;100399.78;5070923;28;20052;-76
2021/09/08 05:54:29;;;;;;;1.63;1.63;;;;;;;13.95;65.42;100391.13;5053216;28;20041;-75
2021/09/08 05:56:58;;;;;;;1.10;1.10;;;;;;;14.26;64.23;100392.75;5070152;28;20517;-74
2021/09/08 05:59:24;;;;;;;5.45;1.75;;;;;;;14.78;62.44;100392.16;5059592;28;20052;-77
2021/09/08 06:01:50;;;;;;;1.92;1.77;;;;;;;15.08;60.91;100382.31;5070953;28;20049;-75
2021/09/08 06:04:16;;;;;;;0.95;0.95;;;;;;;15.63;58.93;100380.38;5071286;28;20041;-77
2021/09/08 06:06:43;;;;;;;1.60;1.52;;;;;;;16.20;57.49;100389.69;5070750;28;20140;-75
2021/09/08 06:09:09;;;;;;;1.40;1.40;;;;;;;16.70;55.51;100370.28;5083656;28;20044;-74
2021/09/08 06:11:35;;;;;;;1.40;1.30;;;;;;;16.69;54.35;100371.28;5073118;28;20505;-72
2021/09/08 06:14:01;;;;;;;13.23;1.88;;;;;;;16.30;55.65;100362.56;5091417;28;20474;-73
2021/09/08 06:16:27;;;;;;;2.70;2.50;;;;;;;15.84;57.71;100379.84;5090847;28;20080;-75
2021/09/08 06:18:53;;;;;;;1.08;1.08;;;;;;;14.97;59.97;100380.38;5091216;28;20052;-74
2021/09/08 06:21:20;;;;;;;1.65;1.60;;;;;;;14.79;60.45;100378.06;5091147;28;20528;-75
2021/09/08 06:23:47;;;;;;;1.52;1.52;;;;;;;14.65;60.83;100375.47;5072786;28;20056;-74
2021/09/08 06:26:13;;;;;;;1.30;1.30;;;;;;;15.51;57.94;100364.56;5072687;28;20055;-75
2021/09/08 06:28:39;;;;;;;1.05;1.05;;;;;;;15.77;57.18;100365.44;5089222;28;20169;-76
2021/09/08 06:31:05;;;;;;;1.38;1.30;;;;;;;15.59;58.16;100371.00;5090515;28;20052;-77
2021/09/08 06:33:31;;;;;;;2.38;2.28;;;;;;;16.92;54.22;100357.22;5086295;28;20055;-76
2021/09/08 06:35:57;;;;;;;1.40;1.40;;;;;;;16.78;52.65;100360.91;5087799;28;20040;-74
2021/09/08 06:38:23;;;;;;;1.25;1.25;;;;;;;17.31;52.46;100372.78;5071481;28;20059;-74
2021/09/08 06:40:51;;;;;;;1.23;1.23;;;;;;;16.61;52.88;100367.38;5068840;28;20363;-75
2021/09/08 06:43:17;;;;;;;1.42;1.33;;;;;;;16.80;52.85;100361.63;5070472;28;20048;-74
2021/09/08 06:45:43;;;;;;;0.88;0.88;;;;;;;15.77;54.69;100352.28;5056301;28;20051;-73
2021/09/08 06:48:09;;;;;;;1.33;1.33;;;;;;;15.49;56.07;100358.53;5061419;28;20055;-72
2021/09/08 06:50:35;;;;;;;1.45;1.40;;;;;;;16.03;54.16;100362.69;5055263;28;20150;-74
2021/09/08 06:53:01;;;;;;;1.13;1.13;;;;;;;16.45;53.52;100350.09;5082816;28;20055;-72
2021/09/08 06:55:27;;;;;;;1.23;1.13;;;;;;;17.02;52.31;100345.91;5090931;28;20074;-72
2021/09/08 06:57:53;;;;;;;1.40;1.40;;;;;;;18.54;47.77;100348.28;5091689;28;20048;-73
2021/09/08 07:00:19;;;;;;;1.38;1.27;;;;;;;17.88;49.78;100350.88;5072408;28;20571;-74
2021/09/08 07:02:45;;;;;;;1.33;1.25;;;;;;;16.64;53.33;100350.50;5070478;28;20149;-72
2021/09/08 07:05:11;;;;;;;1.38;1.27;;;;;;;15.46;55.75;100356.09;5086427;28;20154;-72
2021/09/08 07:07:37;;;;;;;1.90;1.80;;;;;;;15.15;56.53;100359.06;5053143;28;20131;-72
2021/09/08 07:10:04;;;;;;;0.95;0.95;;;;;;;15.19;57.33;100368.44;5088015;28;20124;-74
2021/09/08 07:12:30;;;;;;;1.70;1.25;;;;;;;14.85;57.72;100365.38;5087374;28;20083;-73
2021/09/08 07:14:56;;;;;;;1.38;1.27;;;;;;;15.04;57.90;100367.66;5087436;28;20051;-73
2021/09/08 07:17:22;;;;;;;4.55;2.33;;;;;;;14.88;57.24;100361.72;5055249;28;20051;-74
2021/09/08 07:19:48;;;;;;;3.92;1.02;;;;;;;14.82;57.22;100372.63;5088418;28;20056;-73
2021/09/08 07:22:14;;;;;;;0.95;0.95;;;;;;;14.77;57.37;100358.91;5089652;28;20052;-72
2021/09/08 07:24:41;;;;;;;0.90;0.90;;;;;;;14.79;57.32;100354.41;5071415;28;20143;-72
2021/09/08 07:27:08;;;;;;;1.02;1.00;;;;;;;14.77;56.91;100354.50;5089340;28;20463;-72
2021/09/08 07:29:34;;;;;;;0.95;0.95;;;;;;;14.78;56.70;100344.84;5071242;28;20077;-73
2021/09/08 07:32:00;;;;;;;1.00;1.00;;;;;;;14.74;57.31;100351.22;5071043;28;20054;-74
2021/09/08 07:34:26;;;;;;;0.85;0.85;;;;;;;14.95;56.00;100347.22;5089106;28;20436;-75
2021/09/08 07:36:52;;;;;;;2.38;1.52;;;;;;;15.01;56.41;100352.09;5056656;28;20052;-73
2021/09/08 07:39:18;;;;;;;1.30;1.23;;;;;;;15.03;54.67;100334.41;5018404;28;20091;-74
2021/09/08 07:41:44;;;;;;;22.35;1.95;;;;;;;15.26;55.15;100336.38;5068688;28;20080;-73
2021/09/08 07:57:28;;;;;;;1.13;1.13;;;;;;;14.99;56.40;100340.81;5081132;28;20050;-74
2021/09/08 07:59:54;;;;;;;1.15;1.15;;;;;;;14.81;56.53;100339.38;5069743;28;20059;-74
2021/09/08 08:02:20;;;;;;;2.25;2.05;;;;;;;14.86;56.72;100332.03;5072216;28;20457;-74
2021/09/08 08:04:46;;;;;;;1.10;1.00;;;;;;;14.76;55.47;100336.19;5051053;28;20064;-75
2021/09/08 08:07:12;;;;;;;0.82;0.82;;;;;;;14.63;56.85;100337.94;5067573;28;20569;-74
2021/09/08 08:09:44;;;;;;;1.58;1.48;;;;;;;14.79;57.25;100338.66;5067706;28;20465;-73
2021/09/08 08:12:10;;;;;;;1.15;1.15;;;;;;;14.83;55.92;100337.47;5068203;28;20109;-73
2021/09/08 08:14:36;;;;;;;1.35;1.27;;;;;;;15.04;56.13;100336.94;5059121;28;20097;-73
2021/09/08 08:17:03;;;;;;;3.42;1.00;;;;;;;14.83;55.42;100342.75;5087167;28;20052;-73
2021/09/08 08:19:29;;;;;;;5.22;1.10;;;;;;;14.79;56.70;100336.03;5088932;28;20044;-72
2021/09/08 08:21:56;;;;;;;1.45;1.35;;;;;;;14.70;55.31;100320.81;5070248;28;20048;-73
2021/09/08 08:24:22;;;;;;;1.00;1.00;;;;;;;14.58;57.25;100344.31;5087493;28;20071;-71
2021/09/08 08:26:48;;;;;;;0.80;0.80;;;;;;;14.49;57.27;100349.31;5070295;28;20799;-72
2021/09/08 08:29:14;;;;;;;7.18;2.58;;;;;;;14.68;57.48;100343.75;5088820;28;20044;-72
2021/09/08 08:31:40;;;;;;;1.83;1.73;;;;;;;14.71;57.17;100333.88;5087349;28;20059;-72
2021/09/08 08:34:06;;;;;;;4.82;2.05;;;;;;;14.62;56.94;100328.38;5074934;28;20048;-71
2021/09/08 08:36:32;;;;;;;1.85;1.35;;;;;;;14.64;57.02;100336.97;5072597;28;20044;-71
2021/09/08 08:38:57;;;;;;;0.98;0.93;;;;;;;14.74;56.56;100333.69;5068209;28;20055;-72
2021/09/08 08:41:24;;;;;;;1.10;1.10;;;;;;;14.59;58.31;100332.84;5068135;28;20151;-72
2021/09/08 08:43:49;;;;;;;0.70;0.70;;;;;;;14.51;58.32;100334.28;5084797;28;20112;-72
2021/09/08 08:46:18;;;;;;;0.75;0.75;;;;;;;14.54;59.77;100336.72;5070883;28;20101;-73
2021/09/08 08:48:44;;;;;;;0.55;0.55;;;;;;;14.43;60.28;100324.25;5070184;28;20056;-72
2021/09/08 08:51:10;;;;;;;1.83;1.73;;;;;;;14.49;59.34;100318.66;5086734;28;20048;-73
2021/09/08 08:53:35;;;;;;;2.55;1.30;;;;;;;14.53;58.55;100322.75;5068295;28;20448;-74
2021/09/08 08:56:02;;;;;;;0.70;0.70;;;;;;;14.51;56.47;100323.78;5068175;28;20068;-73
2021/09/08 08:58:27;;;;;;;0.90;0.90;;;;;;;14.45;56.43;100329.44;5067026;28;20101;-72
2021/09/08 09:01:32;;;;;;;0.95;0.95;;;;;;;14.67;56.93;100334.16;5080116;28;20048;-77
2021/09/08 09:04:03;;;;;;;1.65;0.90;;;;;;;14.70;58.07;100326.06;5012380;28;20053;-77
2021/09/08 09:06:29;;;;;;;1.35;1.25;;;;;;;14.74;54.92;100312.66;5243669;22;20051;-83
2021/09/08 09:09:05;;;;;;;1.08;1.08;;;;;;;14.97;54.66;100319.03;5005051;28;20054;-80
2021/09/08 09:11:31;;;;;;;1.50;1.05;;;;;;;14.91;53.02;100308.94;4974507;28;20057;-82
2021/09/08 09:13:57;;;;;;;0.60;0.60;;;;;;;14.77;53.16;100319.47;4973641;28;20051;-85
2021/09/08 09:16:25;;;;;;;0.77;0.77;;;;;;;14.79;53.01;100312.38;4972452;28;20065;-83
2021/09/08 09:18:51;;;;;;;1.65;1.55;;;;;;;14.80;54.52;100311.41;4972244;28;20058;-81
2021/09/08 09:21:17;;;;;;;0.60;0.60;;;;;;;14.75;54.64;100324.00;4973267;28;20050;-81
2021/09/08 09:23:50;;;;;;;1.10;1.08;;;;;;;14.52;55.02;100320.22;4990105;28;20546;-81
2021/09/08 09:26:30;;;;;;;1.05;1.00;;;;;;;14.32;55.67;100331.97;4989744;28;20479;-84
2021/09/08 09:29:13;;;;;;;0.70;0.70;;;;;;;14.15;56.58;100319.03;4989031;28;20137;-82
2021/09/08 09:31:53;;;;;;;1.13;1.13;;;;;;;14.09;56.97;100324.66;5208165;23;20057;-78
2021/09/08 09:34:20;;;;;;;0.60;0.60;;;;;;;14.02;57.23;100329.44;5029585;28;20060;-77
2021/09/08 09:36:46;;;;;;;0.55;0.55;;;;;;;13.98;58.07;100314.81;5031869;28;20284;-79
2021/09/08 09:39:12;;;;;;;1.40;1.40;;;;;;;13.96;58.65;100307.97;5031877;28;20053;-77
2021/09/08 09:41:38;;;;;;;2.33;1.50;;;;;;;13.96;58.99;100318.47;5014115;28;20056;-78
2021/09/08 09:44:14;;;;;;;5.15;1.45;;;;;;;13.98;58.57;100309.56;5038445;28;20053;-79
2021/09/08 09:46:43;;;;;;;1.30;1.25;;;;;;;13.88;58.06;100312.84;4999779;28;20064;-78
2021/09/08 09:49:10;;;;;;;2.10;1.80;;;;;;;13.84;58.69;100301.69;5014248;28;20136;-78
2021/09/08 09:51:36;;;;;;;1.00;1.00;;;;;;;13.86;59.45;100309.47;5031020;28;20049;-78
2021/09/08 09:54:02;;;;;;;0.90;0.90;;;;;;;13.92;59.25;100311.72;5030201;28;20149;-77
2021/09/08 09:56:28;;;;;;;1.55;1.55;;;;;;;13.88;59.72;100310.22;5031552;28;20037;-83
2021/09/08 09:58:54;;;;;;;0.68;0.68;;;;;;;13.76;59.42;100295.22;5031194;28;20057;-77
2021/09/08 10:01:20;;;;;;;0.98;0.98;;;;;;;13.77;61.30;100296.91;5030270;28;20065;-75
2021/09/08 10:03:46;;;;;;;1.77;1.67;;;;;;;13.72;60.23;100291.94;5013587;28;20557;-76
2021/09/08 10:06:16;;;;;;;1.83;1.73;;;;;;;13.75;61.46;100290.91;5013715;28;20080;-78
2021/09/08 10:08:43;;;;;;;1.70;1.60;;;;;;;13.66;61.51;100287.06;5013615;28;20053;-78
2021/09/08 10:11:10;;;;;;;1.20;1.15;;;;;;;13.63;61.70;100284.63;5031100;28;20180;-78
2021/09/08 10:13:57;;;;;;;0.93;0.93;;;;;;;13.55;61.89;100274.59;5013099;28;20037;-76
2021/09/08 10:16:46;;;;;;;1.40;1.20;;;;;;;13.66;61.93;100273.09;5022411;28;20134;-78
2021/09/08 10:22:35;;;;;;;0.90;0.90;;;;;;;13.72;62.50;100277.97;5041582;28;20056;-87
2021/09/08 10:25:57;;;;;;;1.33;1.33;;;;;;;13.69;62.83;100278.16;5003878;28;20379;-85
2021/09/08 10:29:19;;;;;;;0.93;0.93;;;;;;;13.69;62.03;100272.91;5040659;28;20045;-83
2021/09/08 10:33:04;;;;;;;0.95;0.95;;;;;;;13.70;60.96;100262.34;5011139;28;20055;-83
2021/09/08 10:36:45;;;;;;;1.00;1.00;;;;;;;13.76;60.64;100255.84;5040504;28;20064;-83
2021/09/08 10:40:30;;;;;;;1.85;1.75;;;;;;;13.77;60.80;100254.94;5038432;28;20078;-86
2021/09/08 10:44:11;;;;;;;2.50;1.30;;;;;;;13.82;60.41;100248.44;5027258;28;20056;-85
2021/09/08 10:47:51;;;;;;;1.20;1.20;;;;;;;13.89;60.31;100244.50;5025545;28;20060;-84
2021/09/08 10:51:32;;;;;;;0.65;0.65;;;;;;;13.85;59.59;100227.25;5014811;28;20115;-83
2021/09/08 10:55:13;;;;;;;1.48;1.38;;;;;;;13.85;59.50;100231.66;5002217;28;20077;-84
2021/09/08 10:58:55;;;;;;;4.03;1.58;;;;;;;13.94;58.82;100228.47;5040125;28;20592;-81
2021/09/08 11:02:36;;;;;;;6.03;1.10;;;;;;;13.99;59.30;100226.41;5037008;28;20091;-86
2021/09/08 11:06:17;;;;;;;1.48;1.38;;;;;;;14.02;59.40;100219.19;5022624;28;20116;-83
2021/09/08 11:09:57;;;;;;;2.53;1.83;;;;;;;14.06;60.35;100211.97;5029011;28;20056;-81
2021/09/08 11:13:38;;;;;;;1.75;1.20;;;;;;;14.12;59.25;100205.47;5021831;28;20064;-81
2021/09/08 11:17:19;;;;;;;1.20;1.20;;;;;;;14.07;59.60;100205.75;5015410;28;20081;-82
2021/09/08 11:21:00;;;;;;;0.50;0.50;;;;;;;14.10;60.24;100206.38;5034046;28;20064;-81
2021/09/08 11:43:39;;;;;;;3.22;1.02;;;;;;;14.22;59.95;100164.53;4906990;29;20087;-76
2021/09/08 11:46:30;;;;;;;1.65;0.98;;;;;;;14.21;60.22;100161.06;4893946;29;20124;-77
2021/09/08 11:49:16;;;;;;;1.15;1.13;;;;;;;14.15;60.19;100140.47;4911582;29;20048;-75
2021/09/08 11:52:03;;;;;;;0.85;0.85;;;;;;;14.19;60.78;100147.22;4896011;29;20056;-76
2021/09/08 11:54:48;;;;;;;1.08;1.08;;;;;;;14.16;60.87;100139.53;4885432;29;20115;-75
2021/09/08 11:57:34;;;;;;;1.63;1.55;;;;;;;14.18;60.90;100149.91;4912338;29;20154;-77
2021/09/08 12:00:20;;;;;;;0.70;0.70;;;;;;;14.15;61.31;100142.25;4916333;29;20084;-76
2021/09/08 12:03:06;;;;;;;1.23;1.23;;;;;;;14.25;61.05;100146.81;4898714;29;20060;-77
2021/09/08 12:05:52;;;;;;;1.30;1.30;;;;;;;14.30;60.60;100159.66;4870893;29;20044;-78
2021/09/08 12:08:21;;;;;;;1.52;1.42;;;;;;;14.39;60.58;100175.69;4887528;29;20107;-77
2021/09/08 12:10:48;;;;;;;1.17;1.17;;;;;;;14.43;60.79;100160.56;4907594;29;20079;-78
2021/09/08 12:13:33;;;;;;;8.40;1.83;;;;;;;14.48;60.80;100172.44;4888142;29;20054;-74
2021/09/08 12:15:59;;;;;;;2.95;2.08;;;;;;;14.43;60.33;100161.38;4898825;29;20044;-73
2021/09/08 12:18:25;;;;;;;4.68;1.65;;;;;;;14.40;61.35;100160.72;4912266;29;20052;-73
2021/09/08 12:20:52;;;;;;;4.95;1.08;;;;;;;14.41;61.04;100157.19;4897880;29;20052;-72
2021/09/08 12:23:36;;;;;;;1.75;1.67;;;;;;;14.52;60.75;100152.06;4915485;29;20056;-72
2021/09/08 12:26:02;;;;;;;1.20;1.20;;;;;;;14.77;60.19;100153.88;4896254;29;20131;-71
2021/09/08 12:28:28;;;;;;;1.05;1.05;;;;;;;14.96;59.32;100149.06;4909613;29;20498;-72
2021/09/08 12:31:18;;;;;;;6.82;2.03;;;;;;;15.02;59.34;100156.53;4909620;29;20068;-71
2021/09/08 12:34:04;;;;;;;0.85;0.85;;;;;;;15.03;58.74;100150.34;4913054;29;20056;-72
2021/09/08 12:36:50;;;;;;;1.40;1.40;;;;;;;15.18;58.93;100151.94;4912871;29;20079;-75
2021/09/08 12:39:49;;;;;;;1.15;1.13;;;;;;;15.06;58.30;100139.59;4912797;29;20413;-70
2021/09/08 12:42:35;;;;;;;1.65;1.55;;;;;;;15.05;58.57;100135.31;4898099;29;20048;-69
2021/09/08 12:45:21;;;;;;;1.40;1.33;;;;;;;15.07;58.60;100141.28;4894098;29;20135;-68
2021/09/08 12:48:07;;;;;;;1.85;1.75;;;;;;;15.00;58.14;100137.41;4892797;29;20048;-72
2021/09/08 12:50:53;;;;;;;1.25;1.15;;;;;;;14.97;59.06;100145.50;4887288;29;20156;-71
2021/09/08 12:53:39;;;;;;;1.80;1.70;;;;;;;15.01;58.73;100147.81;4884907;29;20049;-70
2021/09/08 12:56:25;;;;;;;1.75;1.65;;;;;;;15.01;59.37;100146.97;4889113;29;20435;-70
2021/09/08 12:59:11;;;;;;;2.88;1.90;;;;;;;15.00;58.74;100129.50;4893201;29;20056;-69